createdAt,value
2023-03-21T00:04:33.184Z,99465.95
2023-03-21T00:10:14.329Z,99464.97
2023-03-21T00:16:05.317Z,99460.55
2023-03-21T00:21:55.308Z,99461.41
2023-03-21T00:27:42.993Z,99463.13
2023-03-21T00:33:21.797Z,99465.19
2023-03-21T00:38:49.824Z,99465.52
2023-03-21T00:44:16.225Z,99462.11
2023-03-21T00:49:41.708Z,99450.59
2023-03-21T00:55:07.551Z,99438.55
2023-03-21T01:00:33.450Z,99436.54
2023-03-21T01:06:07.481Z,99429.54
2023-03-21T01:11:32.197Z,99428.91
2023-03-21T01:16:56.027Z,99432.89
2023-03-21T01:22:21.753Z,99425.27
2023-03-21T01:27:46.535Z,99430.06
2023-03-21T01:33:11.063Z,99428.14
2023-03-21T01:38:35.662Z,99427.14
2023-03-21T01:44:00.990Z,99423.68
2023-03-21T01:49:36.349Z,99421.98
2023-03-21T01:55:14.846Z,99422.60
2023-03-21T02:00:48.031Z,99423.02
2023-03-21T02:06:53.834Z,99426.31
2023-03-21T02:12:28.168Z,99425.58
2023-03-21T02:17:59.546Z,99428.39
2023-03-21T02:24:15.656Z,99417.20
2023-03-21T02:30:00.751Z,99422.83
2023-03-21T02:35:54.510Z,99417.27
2023-03-21T02:41:38.237Z,99420.95
2023-03-21T02:47:13.747Z,99419.17
2023-03-21T02:52:40.078Z,99421.41
2023-03-21T02:58:13.299Z,99420.09
2023-03-21T03:03:43.709Z,99418.30
2023-03-21T03:09:32.856Z,99421.81
2023-03-21T03:15:08.678Z,99423.42
2023-03-21T03:21:10.622Z,99419.73
2023-03-21T03:26:48.131Z,99419.73
2023-03-21T03:32:45.207Z,99427.30
2023-03-21T03:38:14.872Z,99424.73
2023-03-21T03:43:48.985Z,99418.97
2023-03-21T03:49:22.767Z,99427.27
2023-03-21T03:54:51.334Z,99426.13
2023-03-21T04:00:17.941Z,99424.16
2023-03-21T04:05:46.560Z,99428.64
2023-03-21T04:11:16.882Z,99423.64
2023-03-21T04:16:45.158Z,99424.07
2023-03-21T04:22:09.458Z,99426.20
2023-03-21T04:27:36.022Z,99426.04
2023-03-21T04:33:20.357Z,99420.91
2023-03-21T04:38:50.548Z,99422.23
2023-03-21T04:44:17.872Z,99423.80
2023-03-21T04:49:44.238Z,99426.58
2023-03-21T04:55:10.606Z,99428.20
2023-03-21T05:00:38.791Z,99430.19
2023-03-21T05:06:03.529Z,99429.59
2023-03-21T05:11:31.110Z,99428.10
2023-03-21T05:16:57.873Z,99428.60
2023-03-21T05:22:24.575Z,99434.79
2023-03-21T05:27:54.557Z,99439.20
2023-03-21T05:33:22.616Z,99441.11
2023-03-21T05:38:47.072Z,99441.63
2023-03-21T05:44:11.859Z,99440.00
2023-03-21T05:49:37.441Z,99445.33
2023-03-21T05:55:02.924Z,99450.05
2023-03-21T06:00:30.489Z,99451.68
2023-03-21T06:06:17.744Z,99453.61
2023-03-21T06:11:55.936Z,99454.86
2023-03-21T06:17:26.913Z,99463.17
2023-03-21T06:22:56.782Z,99466.34
2023-03-21T06:28:21.432Z,99468.70
2023-03-21T06:33:47.085Z,99468.90
2023-03-21T06:39:11.607Z,99471.73
2023-03-21T06:44:37.540Z,99472.79
2023-03-21T06:50:06.741Z,99478.25
2023-03-21T06:55:37.016Z,99482.77
2023-03-21T07:01:03.600Z,99492.20
2023-03-21T07:06:29.354Z,99494.23
2023-03-21T07:11:54.400Z,99493.13
2023-03-21T07:17:22.090Z,99500.36
2023-03-21T07:22:46.116Z,99503.31
2023-03-21T07:28:13.283Z,99507.44
2023-03-21T07:33:39.114Z,99507.30
2023-03-21T07:39:03.546Z,99508.56
2023-03-21T07:44:27.954Z,99512.36
2023-03-21T07:49:59.144Z,99514.45
2023-03-21T07:55:23.912Z,99516.39
2023-03-21T08:00:49.991Z,99521.48
2023-03-21T08:06:15.672Z,99516.66
2023-03-21T08:11:40.990Z,99517.36
2023-03-21T08:17:07.514Z,99519.89
2023-03-21T08:22:31.872Z,99524.08
2023-03-21T08:27:56.249Z,99526.79
2023-03-21T08:33:23.365Z,99532.04
2023-03-21T08:38:49.029Z,99533.70
2023-03-21T08:44:14.252Z,99531.73
2023-03-21T08:49:38.980Z,99530.51
2023-03-21T08:55:04.510Z,99530.38
2023-03-21T09:00:28.740Z,99533.98
2023-03-21T09:05:55.252Z,99535.84
2023-03-21T09:11:19.967Z,99540.16
2023-03-21T09:16:44.206Z,99540.66
2023-03-21T09:22:14.506Z,99540.55
2023-03-21T09:27:39.807Z,99542.02
2023-03-21T09:33:10.191Z,99543.64
2023-03-21T09:38:37.315Z,99543.53
2023-03-21T09:44:29.399Z,99543.92
2023-03-21T09:50:12.928Z,99539.77
2023-03-21T09:55:41.086Z,99537.70
2023-03-21T10:01:35.688Z,99537.77
2023-03-21T10:07:04.353Z,99536.60
2023-03-21T10:12:32.860Z,99531.95
2023-03-21T10:18:05.773Z,99523.71
2023-03-21T10:23:31.052Z,99527.11
2023-03-21T10:28:58.646Z,99523.92
2023-03-21T10:34:23.636Z,99521.18
2023-03-21T10:39:51.033Z,99520.97
2023-03-21T10:45:21.226Z,99517.91
2023-03-21T10:50:49.435Z,99513.27
2023-03-21T10:56:14.428Z,99509.55
2023-03-21T11:01:42.141Z,99509.40
2023-03-21T11:07:10.056Z,99511.16
2023-03-21T11:12:38.656Z,99506.67
2023-03-21T11:18:22.470Z,99505.05
2023-03-21T11:23:50.265Z,99499.86
2023-03-21T11:29:31.617Z,99492.88
2023-03-21T11:35:06.024Z,99488.00
2023-03-21T11:40:35.678Z,99480.31
2023-03-21T11:46:06.580Z,99481.95
2023-03-21T11:51:46.485Z,99480.71
2023-03-21T11:57:27.906Z,99477.80
2023-03-21T12:03:07.084Z,99472.13
2023-03-21T12:08:38.545Z,99468.25
2023-03-21T12:14:24.446Z,99467.00
2023-03-21T12:20:10.952Z,99465.61
2023-03-21T12:25:42.972Z,99459.04
2023-03-21T12:31:30.309Z,99453.61
2023-03-21T12:37:03.699Z,99444.58
2023-03-21T12:42:46.222Z,99436.86
2023-03-21T12:48:16.905Z,99429.38
2023-03-21T12:54:08.333Z,99422.76
2023-03-21T13:00:19.129Z,99415.47
2023-03-21T13:05:52.177Z,99410.50
2023-03-21T13:11:22.295Z,99403.84
2023-03-21T13:16:56.340Z,99403.00
2023-03-21T13:22:29.575Z,99395.48
2023-03-21T13:28:06.056Z,99390.05
2023-03-21T13:33:35.127Z,99383.54
2023-03-21T13:39:08.254Z,99378.35
2023-03-21T13:44:50.394Z,99371.52
2023-03-21T13:50:15.294Z,99368.39
2023-03-21T13:55:46.183Z,99360.16
2023-03-21T14:01:32.352Z,99350.55
2023-03-21T14:07:08.781Z,99336.70
2023-03-21T14:12:44.960Z,99328.95
2023-03-21T14:18:21.214Z,99329.17
2023-03-21T14:24:20.195Z,99331.64
2023-03-21T14:29:46.669Z,99329.46
2023-03-21T14:35:13.157Z,99323.04
2023-03-21T14:40:38.112Z,99322.00
2023-03-21T14:46:02.820Z,99322.66
2023-03-21T14:51:27.816Z,99313.45
2023-03-21T14:56:57.305Z,99316.08
2023-03-21T15:02:27.002Z,99308.95
2023-03-21T15:08:18.711Z,99312.20
2023-03-21T15:13:55.595Z,99309.14
2023-03-21T15:19:27.942Z,99305.20
2023-03-21T15:24:58.168Z,99301.14
2023-03-21T15:30:28.975Z,99290.63
2023-03-21T15:35:56.834Z,99286.50
2023-03-21T15:41:21.279Z,99283.09
2023-03-21T15:46:49.364Z,99283.54
2023-03-21T15:52:16.324Z,99277.48
2023-03-21T15:57:52.075Z,99270.45
2023-03-21T16:03:30.833Z,99271.10
2023-03-21T16:09:11.459Z,99267.81
2023-03-21T16:14:36.242Z,99265.44
2023-03-21T16:20:01.813Z,99270.27
2023-03-21T16:25:26.599Z,99261.67
2023-03-21T16:30:50.879Z,99266.91
2023-03-21T16:36:20.552Z,99266.52
2023-03-21T16:41:45.277Z,99269.43
2023-03-21T16:47:21.139Z,99274.48
2023-03-21T16:52:45.947Z,99275.04
2023-03-21T16:58:16.068Z,99276.20
2023-03-21T17:03:40.510Z,99270.98
2023-03-21T17:09:04.987Z,99269.84
2023-03-21T17:14:29.676Z,99269.98
2023-03-21T17:19:54.425Z,99269.38
2023-03-21T17:25:20.641Z,99269.80
2023-03-21T17:30:45.368Z,99278.80
2023-03-21T17:36:13.469Z,99277.81
2023-03-21T17:41:38.003Z,99274.97
2023-03-21T17:47:02.153Z,99269.92
2023-03-21T17:52:26.960Z,99270.36
2023-03-21T17:57:52.118Z,99267.98
2023-03-21T18:03:18.517Z,99260.38
2023-03-21T18:08:45.085Z,99254.84
2023-03-21T18:14:18.593Z,99251.63
2023-03-21T18:19:45.132Z,99254.39
2023-03-21T18:25:11.657Z,99254.18
2023-03-21T18:30:53.476Z,99254.11
2023-03-21T18:36:25.819Z,99249.55
2023-03-21T18:41:55.836Z,99242.29
2023-03-21T18:47:22.040Z,99248.27
2023-03-21T18:52:46.819Z,99245.79
2023-03-21T18:58:13.161Z,99238.58
2023-03-21T19:03:37.858Z,99241.20
2023-03-21T19:09:03.511Z,99234.92
2023-03-21T19:14:28.455Z,99232.92
2023-03-21T19:19:52.244Z,99229.80
2023-03-21T19:25:17.111Z,99231.77
2023-03-21T19:30:49.832Z,99236.30
2023-03-21T19:36:21.938Z,99234.50
2023-03-21T19:41:48.086Z,99232.92
2023-03-21T19:47:12.643Z,99230.73
2023-03-21T19:52:37.943Z,99222.44
2023-03-21T19:58:02.572Z,99212.61
2023-03-21T20:03:27.061Z,99210.46
2023-03-21T20:14:37.322Z,99217.83
2023-03-21T20:20:11.035Z,99210.29
2023-03-21T20:25:35.843Z,99209.50
2023-03-21T20:31:01.310Z,99202.88
2023-03-21T20:36:40.162Z,99197.86
2023-03-21T20:42:06.892Z,99186.45
2023-03-21T20:47:32.095Z,99188.64
2023-03-21T20:53:06.421Z,99186.99
2023-03-21T20:58:57.187Z,99185.32
2023-03-21T21:04:20.476Z,99184.64
2023-03-21T21:09:46.338Z,99186.29
2023-03-21T21:15:12.721Z,99185.81
2023-03-21T21:20:40.430Z,99181.00
2023-03-21T21:26:07.188Z,99177.89
2023-03-21T21:31:35.020Z,99171.77
2023-03-21T21:36:59.382Z,99168.20
2023-03-21T21:42:23.862Z,99167.22
2023-03-21T21:47:49.422Z,99168.34
2023-03-21T21:53:19.495Z,99165.19
2023-03-21T21:58:46.601Z,99160.29
2023-03-21T22:04:11.595Z,99159.61
2023-03-21T22:09:36.392Z,99155.69
2023-03-21T22:15:00.762Z,99157.95
2023-03-21T22:20:25.586Z,99154.41
2023-03-21T22:25:52.155Z,99152.77
2023-03-21T22:31:17.558Z,99157.21
2023-03-21T22:36:47.245Z,99156.44
2023-03-21T22:42:11.145Z,99157.37
2023-03-21T22:47:35.336Z,99155.20
2023-03-21T22:53:00.299Z,99153.09
2023-03-21T22:58:25.032Z,99151.62
2023-03-21T23:03:49.544Z,99149.58
2023-03-21T23:09:13.958Z,99147.49
2023-03-21T23:14:38.088Z,99145.01
2023-03-21T23:20:02.562Z,99143.23
2023-03-21T23:25:29.598Z,99139.31
2023-03-21T23:30:54.263Z,99134.66
2023-03-21T23:36:20.246Z,99135.11
2023-03-21T23:41:45.557Z,99139.67
2023-03-21T23:47:10.081Z,99140.81
2023-03-21T23:52:34.473Z,99141.82
2023-03-21T23:58:00.008Z,99140.93
